Overview Statistics Trail Chart Weather Telemetry Raw packets
 

This is the latest recevied weather packets stored in our database for station/object N5ZP. If no packets are shown the sender has not sent any weather packets the latest 10 day(s).

<< 110 111 112 113 114 >>
Time Temp. Humidity Pressure Rain* Wind** Luminosity Snow
1787768882 35.56° C 46% 1012.8 hPa 0 mm - 463 W/m² -
1787768578 35° C 49% 1013 hPa 0 mm - 399 W/m² -
1787768275 35° C 47% 1013 hPa 0 mm - 327 W/m² -
1787767971 35° C 47% 1012.8 hPa 0 mm - 286 W/m² -
1787767671 34.44° C 47% 1013 hPa 0 mm - 316 W/m² -
1787767370 35° C 47% 1013.1 hPa 0 mm - 423 W/m² -
1787767069 35° C 47% 1013.3 hPa 0 mm - 478 W/m² -
1787766768 35° C 48% 1013.2 hPa 0 mm - 451 W/m² -
1787766468 35° C 47% 1013.3 hPa 0 mm - 417 W/m² -
1787766163 33.89° C 50% 1013.4 hPa 0 mm - 429 W/m² -
1787765858 33.33° C 51% 1013.4 hPa 0 mm - 412 W/m² -
1787765555 32.78° C 52% 1013.6 hPa 0 mm - 453 W/m² -
1787765254 32.22° C 54% 1013.5 hPa 0 mm - 313 W/m² -
1787764953 31.67° C 55% 1013.5 hPa 0 mm - 261 W/m² -
1787764649 31.67° C 56% 1013.5 hPa 0 mm - 238 W/m² -
1787764349 31.11° C 57% 1013.6 hPa 0 mm - 211 W/m² -
1787764046 31.11° C 57% 1013.6 hPa 0 mm - 183 W/m² -
1787763740 30.56° C 58% 1013.6 hPa 0 mm - 147 W/m² -
1787763436 31.11° C 58% 1013.7 hPa 0 mm - 103 W/m² -
1787763130 31.11° C 58% 1013.6 hPa 0 mm - 78 W/m² -
1787762830 31.11° C 58% 1013.7 hPa 0 mm - 67 W/m² -
1787762529 31.67° C 57% 1013.7 hPa 0 mm - 63 W/m² -
1787762221 32.22° C 56% 1013.7 hPa 0 mm - 69 W/m² -
1787761916 32.78° C 55% 1013.5 hPa 0 mm - 79 W/m² -
1787761612 32.78° C 56% 1013.5 hPa 0 mm - 92 W/m² -

* Rain latest hour (hover to see other rain measurements)
** Current wind speed in m/s (hover to see current wind gust speed)